Shin Puropan Maru — JG5508 — position and weather

sailwx.info

Track history (hours):
 
Tides and Currents Weather Stations Pressure Air Temp Water Temp Dewpoint Dewpoint Depression Visibility Wind Speed Wind Dir Waves Ship Positions

Shin Puropan Maru

Last reported at 2016-May-27 13:17 UTC. Time now 2016-May-28 06:01 UTC.
Position N 34°01' E 135°00'.

Length 66 m; draft 3.6 m.

Type: Ship (hazmat cat A). MMSI: 431100348.

Date/timePositionNaut miles runAvg speedWind from/ knotsBaromVisibWave heightAir tempDewpointWater temp
2016-May-27 13:17N 34°01' E 135°00'1112.3
2016-May-27 12:22N 34°12' E 134°59'1311.4
2016-May-27 11:13N 34°25' E 135°05'913.0
2016-May-27 10:33N 34°30' E 135°13'1211.5
2016-May-27 09:33N 34°36' E 135°25'1 0.4
2016-May-27 06:18N 34°34' E 135°26'3 3.7
2016-May-27 05:33N 34°36' E 135°23'4 0.7
2016-May-27 00:05N 34°33' E 135°26'2 3.7
2016-May-26 23:31N 34°33' E 135°24'3 2.5
2016-May-26 22:12N 34°31' E 135°21'0 0.0
2016-May-26 21:24N 34°31' E 135°21'0 0.1
2016-May-26 20:24N 34°31' E 135°21'0 0.0
2016-May-26 18:30N 34°31' E 135°21'0 0.0
2016-May-26 17:24N 34°31' E 135°21'0 0.0
2016-May-26 12:30N 34°31' E 135°21'0 0.0
2016-May-26 10:12N 34°31' E 135°21'0 0.0
2016-May-26 08:30N 34°31' E 135°21'0 0.0
2016-May-26 07:30N 34°31' E 135°21'0 0.0
2016-May-26 05:30N 34°31' E 135°21'0 0.0
2016-May-26 03:12N 34°31' E 135°21'0 0.1
2016-May-26 02:30N 34°31' E 135°21'0 0.0
2016-May-26 01:30N 34°31' E 135°21'0 0.0
2016-May-25 21:12N 34°31' E 135°21'0 0.1
2016-May-25 20:30N 34°31' E 135°21'0 0.0
2016-May-25 19:12N 34°31' E 135°21'0 0.0
2016-May-25 18:06N 34°31' E 135°21'0 0.0
2016-May-25 17:30N 34°31' E 135°21'0 0.0
2016-May-25 16:30N 34°31' E 135°21'0 0.0
2016-May-25 15:30N 34°31' E 135°21'0 0.0
2016-May-25 14:30N 34°31' E 135°21'0 0.0
2016-May-25 13:30N 34°31' E 135°21'0 0.0
2016-May-25 12:30N 34°31' E 135°21'0 0.0
2016-May-25 11:30N 34°31' E 135°21'0 0.0
2016-May-25 10:18N 34°31' E 135°21'0 0.0
2016-May-25 09:30N 34°31' E 135°21'0 0.0
2016-May-25 08:30N 34°31' E 135°21'6 6.1
2016-May-25 07:33N 34°36' E 135°24'3 0.8
2016-May-25 04:03N 34°34' E 135°26'3 5.4
2016-May-25 03:33N 34°36' E 135°24'1211.9
2016-May-25 02:33N 34°29' E 135°13'2311.3
2016-May-25 00:33N 34°09' E 134°60'11 0.3
2016-May-23 06:33N 33°58' E 135°01'1313.0
2016-May-23 05:32N 34°11' E 134°59'1413.0
2016-May-23 04:25N 34°24' E 135°05'1112.7
2016-May-23 03:33N 34°32' E 135°15'9 9.1
2016-May-23 02:33N 34°34' E 135°26'0 0.0
2016-May-22 23:28N 34°34' E 135°26'4 4.6
2016-May-22 22:33N 34°35' E 135°21'1010.5
2016-May-22 21:34N 34°28' E 135°11'1111.4
2016-May-22 20:34N 34°20' E 135°02'10 9.9
2016-May-22 19:33N 34°10' E 134°60'  
2016-May-20 10:33N 34°09' E 134°59'1110.8
2016-May-20 09:33N 34°20' E 134°59'1110.9
2016-May-20 08:33N 34°27' E 135°09'1211.8
2016-May-20 07:33N 34°35' E 135°20'5 1.2
2016-May-20 03:33N 34°35' E 135°25'2 1.9
2016-May-20 02:23N 34°35' E 135°23'0 0.0
2016-May-20 01:29N 34°35' E 135°23'0 0.0
2016-May-20 00:29N 34°35' E 135°23'0 0.0
2016-May-19 23:30N 34°35' E 135°23'9 9.4
2016-May-19 22:33N 34°30' E 135°15'1212.1
2016-May-19 21:33N 34°22' E 135°03'1211.6
2016-May-19 20:33N 34°11' E 134°60'4 0.1
2016-May-18 06:21N 34°07' E 134°60'1212.9
2016-May-18 05:23N 34°20' E 134°59'1012.3
2016-May-18 04:33N 34°27' E 135°08'1212.4
2016-May-18 03:33N 34°35' E 135°20'5 1.2
2016-May-17 23:31N 34°34' E 135°26'6 6.1
2016-May-17 22:33N 34°33' E 135°19'1211.7
2016-May-17 21:33N 34°25' E 135°08'1311.7
2016-May-17 20:27N 34°14' E 134°59'  
Track history (hours):
 
Tides and Currents Weather Stations Pressure Air Temp Water Temp Dewpoint Dewpoint Depression Visibility Wind Speed Wind Dir Waves Ship Positions

Shin Puropan Maru

Last reported at 2016-May-27 13:17 UTC. Time now 2016-May-28 06:01 UTC.
Position N 34°01' E 135°00'.

Length 66 m; draft 3.6 m.

Type: Ship (hazmat cat A). MMSI: 431100348.

Date/timePositionNaut miles runAvg speedWind from/ knotsBaromVisibWave heightAir tempDewpointWater temp
2016-May-27 13:17N 34°01' E 135°00'1112.3
2016-May-27 12:22N 34°12' E 134°59'1311.4
2016-May-27 11:13N 34°25' E 135°05'913.0
2016-May-27 10:33N 34°30' E 135°13'1211.5
2016-May-27 09:33N 34°36' E 135°25'1 0.4
2016-May-27 06:18N 34°34' E 135°26'3 3.7
2016-May-27 05:33N 34°36' E 135°23'4 0.7
2016-May-27 00:05N 34°33' E 135°26'2 3.7
2016-May-26 23:31N 34°33' E 135°24'3 2.5
2016-May-26 22:12N 34°31' E 135°21'0 0.0
2016-May-26 21:24N 34°31' E 135°21'0 0.1
2016-May-26 20:24N 34°31' E 135°21'0 0.0
2016-May-26 18:30N 34°31' E 135°21'0 0.0
2016-May-26 17:24N 34°31' E 135°21'0 0.0
2016-May-26 12:30N 34°31' E 135°21'0 0.0
2016-May-26 10:12N 34°31' E 135°21'0 0.0
2016-May-26 08:30N 34°31' E 135°21'0 0.0
2016-May-26 07:30N 34°31' E 135°21'0 0.0
2016-May-26 05:30N 34°31' E 135°21'0 0.0
2016-May-26 03:12N 34°31' E 135°21'0 0.1
2016-May-26 02:30N 34°31' E 135°21'0 0.0
2016-May-26 01:30N 34°31' E 135°21'0 0.0
2016-May-25 21:12N 34°31' E 135°21'0 0.1
2016-May-25 20:30N 34°31' E 135°21'0 0.0
2016-May-25 19:12N 34°31' E 135°21'0 0.0
2016-May-25 18:06N 34°31' E 135°21'0 0.0
2016-May-25 17:30N 34°31' E 135°21'0 0.0
2016-May-25 16:30N 34°31' E 135°21'0 0.0
2016-May-25 15:30N 34°31' E 135°21'0 0.0
2016-May-25 14:30N 34°31' E 135°21'0 0.0
2016-May-25 13:30N 34°31' E 135°21'0 0.0
2016-May-25 12:30N 34°31' E 135°21'0 0.0
2016-May-25 11:30N 34°31' E 135°21'0 0.0
2016-May-25 10:18N 34°31' E 135°21'0 0.0
2016-May-25 09:30N 34°31' E 135°21'0 0.0
2016-May-25 08:30N 34°31' E 135°21'6 6.1
2016-May-25 07:33N 34°36' E 135°24'3 0.8
2016-May-25 04:03N 34°34' E 135°26'3 5.4
2016-May-25 03:33N 34°36' E 135°24'1211.9
2016-May-25 02:33N 34°29' E 135°13'2311.3
2016-May-25 00:33N 34°09' E 134°60'11 0.3
2016-May-23 06:33N 33°58' E 135°01'1313.0
2016-May-23 05:32N 34°11' E 134°59'1413.0
2016-May-23 04:25N 34°24' E 135°05'1112.7
2016-May-23 03:33N 34°32' E 135°15'9 9.1
2016-May-23 02:33N 34°34' E 135°26'0 0.0
2016-May-22 23:28N 34°34' E 135°26'4 4.6
2016-May-22 22:33N 34°35' E 135°21'1010.5
2016-May-22 21:34N 34°28' E 135°11'1111.4
2016-May-22 20:34N 34°20' E 135°02'10 9.9
2016-May-22 19:33N 34°10' E 134°60'  
2016-May-20 10:33N 34°09' E 134°59'1110.8
2016-May-20 09:33N 34°20' E 134°59'1110.9
2016-May-20 08:33N 34°27' E 135°09'1211.8
2016-May-20 07:33N 34°35' E 135°20'5 1.2
2016-May-20 03:33N 34°35' E 135°25'2 1.9
2016-May-20 02:23N 34°35' E 135°23'0 0.0
2016-May-20 01:29N 34°35' E 135°23'0 0.0
2016-May-20 00:29N 34°35' E 135°23'0 0.0
2016-May-19 23:30N 34°35' E 135°23'9 9.4
2016-May-19 22:33N 34°30' E 135°15'1212.1
2016-May-19 21:33N 34°22' E 135°03'1211.6
2016-May-19 20:33N 34°11' E 134°60'4 0.1
2016-May-18 06:21N 34°07' E 134°60'1212.9
2016-May-18 05:23N 34°20' E 134°59'1012.3
2016-May-18 04:33N 34°27' E 135°08'1212.4
2016-May-18 03:33N 34°35' E 135°20'5 1.2
2016-May-17 23:31N 34°34' E 135°26'6 6.1
2016-May-17 22:33N 34°33' E 135°19'1211.7
2016-May-17 21:33N 34°25' E 135°08'1311.7
2016-May-17 20:27N 34°14' E 134°59'  

Dump ship's entire track history